Time;durP1;ratioP1;P1;durP2;ratioP2;P2;SDS_P1;SDS_P2;PMS_P1;PMS_P2;Temp;Humidity;BMP_temperature;BMP_pressure;BME280_temperature;BME280_humidity;BME280_pressure;Samples;Min_cycle;Max_cycle;Signal;HPM_P1;HPM_P2
2022/03/15 00:00:15;;;;;;;5.97;4.05;;;;;;;;;;6096743;23;20026;-44
2022/03/15 00:02:40;;;;;;;5.50;3.45;;;;;;;;;;6096409;23;20041;-43
2022/03/15 00:05:06;;;;;;;6.22;4.15;;;;;;;;;;6095408;23;20018;-45
2022/03/15 00:07:31;;;;;;;13.63;4.43;;;;;;;;;;6092905;23;20084;-44
2022/03/15 00:09:56;;;;;;;6.28;4.30;;;;;;;;;;6096681;23;20010;-44
2022/03/15 00:12:22;;;;;;;8.20;4.38;;;;;;;;;;6092335;23;20021;-46
2022/03/15 00:14:48;;;;;;;7.00;4.75;;;;;;;;;;6096629;23;20351;-44
2022/03/15 00:17:13;;;;;;;10.40;4.60;;;;;;;;;;6094763;23;20018;-45
2022/03/15 00:19:39;;;;;;;12.40;6.85;;;;;;;;;;6095989;23;20029;-45
2022/03/15 00:22:06;;;;;;;8.95;4.47;;;;;;;;;;6094757;23;20025;-45
2022/03/15 00:24:33;;;;;;;10.38;4.68;;;;;;;;;;6095509;23;20028;-43
2022/03/15 00:26:59;;;;;;;7.70;4.15;;;;;;;;;;6094683;23;20049;-44
2022/03/15 00:29:24;;;;;;;9.27;4.95;;;;;;;;;;6095995;23;20018;-46
2022/03/15 00:31:49;;;;;;;7.50;4.88;;;;;;;;;;6093720;23;20014;-44
2022/03/15 00:34:15;;;;;;;9.05;5.25;;;;;;;;;;6096353;23;20074;-43
2022/03/15 00:36:41;;;;;;;12.20;5.30;;;;;;;;;;6093965;23;20007;-45
2022/03/15 00:39:06;;;;;;;12.10;5.38;;;;;;;;;;6098053;23;20021;-47
2022/03/15 00:41:31;;;;;;;7.45;4.97;;;;;;;;;;6094555;23;20030;-46
2022/03/15 00:43:57;;;;;;;9.93;5.10;;;;;;;;;;6099621;23;20015;-44
2022/03/15 00:46:22;;;;;;;7.13;4.82;;;;;;;;;;6092798;23;20015;-46
2022/03/15 00:48:47;;;;;;;16.33;6.93;;;;;;;;;;6097722;23;20025;-45
2022/03/15 00:51:13;;;;;;;22.20;6.90;;;;;;;;;;6096345;23;20086;-46
2022/03/15 00:53:38;;;;;;;14.88;5.25;;;;;;;;;;6098397;23;20011;-44
2022/03/15 00:56:04;;;;;;;19.15;8.40;;;;;;;;;;6096403;23;20672;-44
2022/03/15 00:58:30;;;;;;;23.30;9.68;;;;;;;;;;6097159;23;20014;-45
2022/03/15 01:00:55;;;;;;;12.27;6.57;;;;;;;;;;6098845;23;20037;-44
2022/03/15 01:03:20;;;;;;;13.63;7.25;;;;;;;;;;6095866;23;20069;-44
2022/03/15 01:05:46;;;;;;;8.75;5.63;;;;;;;;;;6097840;23;20021;-43
2022/03/15 01:08:11;;;;;;;12.63;6.85;;;;;;;;;;6094892;23;20034;-44
2022/03/15 01:10:36;;;;;;;10.70;6.97;;;;;;;;;;6097187;23;20024;-44
2022/03/15 01:13:02;;;;;;;13.63;5.90;;;;;;;;;;6095781;23;20051;-49
2022/03/15 01:15:29;;;;;;;10.73;5.68;;;;;;;;;;6073971;23;20042;-43
2022/03/15 01:17:54;;;;;;;8.15;5.55;;;;;;;;;;6095680;23;20014;-46
2022/03/15 01:20:20;;;;;;;7.25;5.18;;;;;;;;;;6097178;23;20057;-43
2022/03/15 01:22:45;;;;;;;11.55;5.80;;;;;;;;;;6095900;23;20006;-44
2022/03/15 01:25:10;;;;;;;9.40;6.03;;;;;;;;;;6096370;23;20018;-45
2022/03/15 01:27:36;;;;;;;10.52;5.43;;;;;;;;;;6118935;23;20014;-45
2022/03/15 01:30:02;;;;;;;17.35;6.78;;;;;;;;;;6096986;23;20085;-48
2022/03/15 01:32:27;;;;;;;14.13;6.97;;;;;;;;;;6095385;23;20030;-46
2022/03/15 01:34:52;;;;;;;13.73;6.57;;;;;;;;;;6096958;23;20025;-43
2022/03/15 01:37:18;;;;;;;15.27;7.75;;;;;;;;;;6094169;23;20078;-47
2022/03/15 01:39:43;;;;;;;17.17;8.38;;;;;;;;;;6096663;23;20029;-44
2022/03/15 01:42:09;;;;;;;15.50;8.60;;;;;;;;;;6093851;23;20030;-45
2022/03/15 01:44:35;;;;;;;13.73;6.95;;;;;;;;;;6095059;23;20021;-44
2022/03/15 01:47:00;;;;;;;13.13;8.70;;;;;;;;;;6092482;23;20472;-44
2022/03/15 01:49:25;;;;;;;16.10;8.30;;;;;;;;;;6095887;23;20018;-45
2022/03/15 01:51:51;;;;;;;16.30;8.35;;;;;;;;;;6093954;23;20025;-44
2022/03/15 01:54:17;;;;;;;24.13;9.18;;;;;;;;;;6095093;23;20074;-44
2022/03/15 01:56:43;;;;;;;15.68;9.73;;;;;;;;;;6093104;23;20033;-45
2022/03/15 01:59:13;;;;;;;18.73;8.20;;;;;;;;;;6094349;23;20029;-44
2022/03/15 02:01:39;;;;;;;19.20;7.93;;;;;;;;;;6093558;23;20018;-44
2022/03/15 02:04:05;;;;;;;15.80;7.78;;;;;;;;;;6098583;23;20030;-46
2022/03/15 02:06:30;;;;;;;17.45;9.00;;;;;;;;;;6093070;23;20038;-44
2022/03/15 02:08:56;;;;;;;18.88;8.60;;;;;;;;;;6097348;23;20397;-45
2022/03/15 02:11:21;;;;;;;14.57;8.38;;;;;;;;;;6093885;23;20014;-45
2022/03/15 02:13:46;;;;;;;13.85;9.05;;;;;;;;;;6097910;23;20072;-43
2022/03/15 02:16:12;;;;;;;23.13;9.57;;;;;;;;;;6093572;23;20010;-45
2022/03/15 02:18:37;;;;;;;23.77;10.52;;;;;;;;;;6095446;23;20015;-46
2022/03/15 02:21:02;;;;;;;15.38;9.00;;;;;;;;;;6093195;23;20022;-44
2022/03/15 02:23:28;;;;;;;17.98;10.45;;;;;;;;;;6095037;23;20074;-44
2022/03/15 02:25:53;;;;;;;23.35;12.35;;;;;;;;;;6090713;23;20037;-43
2022/03/15 02:28:18;;;;;;;15.50;10.23;;;;;;;;;;6087365;23;20062;-47
2022/03/15 02:30:43;;;;;;;18.70;10.98;;;;;;;;;;6094072;23;20043;-44
2022/03/15 02:33:09;;;;;;;19.55;10.43;;;;;;;;;;6094429;23;20018;-43
2022/03/15 02:35:34;;;;;;;19.48;11.35;;;;;;;;;;6094382;23;20052;-43
2022/03/15 02:37:59;;;;;;;17.05;9.68;;;;;;;;;;6099472;23;20018;-44
2022/03/15 02:40:24;;;;;;;22.13;10.75;;;;;;;;;;6096283;23;20030;-45
2022/03/15 02:42:50;;;;;;;20.65;10.65;;;;;;;;;;6098781;23;20014;-44
2022/03/15 02:45:15;;;;;;;18.75;11.40;;;;;;;;;;6096081;23;20019;-44
2022/03/15 02:47:47;;;;;;;21.45;12.02;;;;;;;;;;6092656;23;20014;-44
2022/03/15 02:50:13;;;;;;;22.00;11.90;;;;;;;;;;6094528;23;20026;-44
2022/03/15 02:52:38;;;;;;;20.45;11.48;;;;;;;;;;6096914;23;20046;-44
2022/03/15 02:55:04;;;;;;;20.45;11.20;;;;;;;;;;6095899;23;20018;-44
2022/03/15 02:57:30;;;;;;;19.50;10.18;;;;;;;;;;6096348;23;20015;-44
2022/03/15 02:59:56;;;;;;;18.67;11.85;;;;;;;;;;6094536;23;20022;-44
2022/03/15 03:02:21;;;;;;;22.75;11.35;;;;;;;;;;6096703;23;20045;-43
2022/03/15 03:04:46;;;;;;;22.48;11.15;;;;;;;;;;6097370;23;20026;-45
2022/03/15 03:07:15;;;;;;;18.23;11.80;;;;;;;;;;6094735;23;20025;-44
2022/03/15 03:09:40;;;;;;;18.87;11.43;;;;;;;;;;6096165;23;20049;-45
2022/03/15 03:12:05;;;;;;;17.55;10.90;;;;;;;;;;6095764;23;20022;-44
2022/03/15 03:14:34;;;;;;;17.05;10.25;;;;;;;;;;6087944;23;20336;-45
2022/03/15 03:16:59;;;;;;;17.48;10.23;;;;;;;;;;6096112;23;20018;-45
2022/03/15 03:19:24;;;;;;;23.85;12.18;;;;;;;;;;6091666;23;20022;-44
2022/03/15 03:21:50;;;;;;;19.52;10.35;;;;;;;;;;6094679;23;20014;-44
2022/03/15 03:24:23;;;;;;;18.17;11.43;;;;;;;;;;6097619;23;20388;-44
2022/03/15 03:26:49;;;;;;;18.38;11.30;;;;;;;;;;6096731;23;20012;-44
2022/03/15 03:29:15;;;;;;;22.15;11.60;;;;;;;;;;6094086;23;20018;-44
2022/03/15 03:31:41;;;;;;;20.67;11.55;;;;;;;;;;6094528;23;20018;-45
2022/03/15 03:34:06;;;;;;;17.15;11.98;;;;;;;;;;6096775;23;20022;-45
2022/03/15 03:36:36;;;;;;;22.25;11.60;;;;;;;;;;6092431;23;20002;-45
2022/03/15 03:39:01;;;;;;;20.55;11.93;;;;;;;;;;6096710;23;20014;-44
2022/03/15 03:41:26;;;;;;;22.10;11.00;;;;;;;;;;6093623;23;20082;-44
2022/03/15 03:43:52;;;;;;;18.42;11.23;;;;;;;;;;6094869;23;20090;-44
2022/03/15 03:46:17;;;;;;;22.05;11.35;;;;;;;;;;6095137;23;20054;-45
2022/03/15 03:48:44;;;;;;;25.75;12.85;;;;;;;;;;6096443;23;20002;-44
2022/03/15 03:51:11;;;;;;;23.67;11.80;;;;;;;;;;6095081;23;20042;-45
2022/03/15 03:53:37;;;;;;;20.65;10.77;;;;;;;;;;6094774;23;20042;-46
2022/03/15 03:56:02;;;;;;;20.67;11.73;;;;;;;;;;6093975;23;20026;-47
2022/03/15 03:58:28;;;;;;;24.30;11.25;;;;;;;;;;6094578;23;20073;-43
2022/03/15 04:00:53;;;;;;;14.70;11.05;;;;;;;;;;6095898;23;20015;-43
2022/03/15 04:03:19;;;;;;;18.42;10.70;;;;;;;;;;6094175;23;20525;-46
2022/03/15 04:05:45;;;;;;;22.55;11.63;;;;;;;;;;6095579;23;20357;-45
2022/03/15 04:08:12;;;;;;;20.20;12.65;;;;;;;;;;6095353;23;20010;-49
2022/03/15 04:10:37;;;;;;;20.25;11.85;;;;;;;;;;6096361;23;20366;-45
2022/03/15 04:13:04;;;;;;;19.13;12.25;;;;;;;;;;6095215;23;20015;-44
2022/03/15 04:15:32;;;;;;;27.50;12.45;;;;;;;;;;6093258;23;20029;-44
2022/03/15 04:17:57;;;;;;;23.15;13.43;;;;;;;;;;6095489;23;20014;-44
2022/03/15 04:20:22;;;;;;;19.63;11.77;;;;;;;;;;6095495;23;20026;-45
2022/03/15 04:22:47;;;;;;;21.98;12.65;;;;;;;;;;6095102;23;20066;-43
2022/03/15 04:25:14;;;;;;;22.15;12.75;;;;;;;;;;6095435;23;20029;-44
2022/03/15 04:27:39;;;;;;;15.20;10.18;;;;;;;;;;6093342;23;20013;-43
2022/03/15 04:30:05;;;;;;;21.65;11.02;;;;;;;;;;6095434;23;20604;-44
2022/03/15 04:32:30;;;;;;;16.10;10.10;;;;;;;;;;6090489;23;20022;-45
2022/03/15 04:34:56;;;;;;;19.95;12.32;;;;;;;;;;6095879;23;20404;-45
2022/03/15 04:37:23;;;;;;;19.00;11.75;;;;;;;;;;6096388;23;20027;-44
2022/03/15 04:39:48;;;;;;;19.17;10.65;;;;;;;;;;6091479;23;20025;-43
2022/03/15 04:42:14;;;;;;;22.15;13.63;;;;;;;;;;6095621;23;20018;-44
2022/03/15 04:44:39;;;;;;;20.50;12.70;;;;;;;;;;6093083;23;20010;-44
2022/03/15 04:47:04;;;;;;;25.52;13.23;;;;;;;;;;6096633;23;20018;-44
2022/03/15 04:49:31;;;;;;;20.42;13.68;;;;;;;;;;6095110;23;20023;-44
2022/03/15 04:51:56;;;;;;;32.72;14.90;;;;;;;;;;6094672;23;20022;-44
2022/03/15 04:54:22;;;;;;;27.40;15.45;;;;;;;;;;6095034;23;20014;-46
2022/03/15 04:56:47;;;;;;;33.63;16.25;;;;;;;;;;6093892;23;20016;-45
2022/03/15 04:59:12;;;;;;;29.63;16.67;;;;;;;;;;6095185;23;20018;-44
2022/03/15 05:01:37;;;;;;;30.55;17.63;;;;;;;;;;6095671;23;20033;-45
2022/03/15 05:04:03;;;;;;;27.70;16.17;;;;;;;;;;6094936;23;20018;-45
2022/03/15 05:06:28;;;;;;;29.92;17.80;;;;;;;;;;6095288;23;20019;-45
2022/03/15 05:08:53;;;;;;;30.08;16.75;;;;;;;;;;6093916;23;20076;-44
2022/03/15 05:11:19;;;;;;;33.33;16.58;;;;;;;;;;6094245;23;20018;-44
2022/03/15 05:13:45;;;;;;;29.20;16.88;;;;;;;;;;6094858;23;20010;-44
2022/03/15 05:16:13;;;;;;;35.78;16.67;;;;;;;;;;6093960;23;20018;-49
2022/03/15 05:18:39;;;;;;;32.22;17.40;;;;;;;;;;6089515;23;20065;-44
2022/03/15 05:21:05;;;;;;;28.02;15.23;;;;;;;;;;6090337;23;20022;-45
2022/03/15 05:23:30;;;;;;;34.92;18.88;;;;;;;;;;6089526;23;20902;-43
2022/03/15 05:25:55;;;;;;;39.45;20.42;;;;;;;;;;6089839;23;20541;-45
2022/03/15 05:28:21;;;;;;;31.35;18.30;;;;;;;;;;6090763;23;20018;-45
2022/03/15 05:30:46;;;;;;;39.75;18.95;;;;;;;;;;6091576;23;20058;-44
2022/03/15 05:33:11;;;;;;;40.20;20.35;;;;;;;;;;6091764;23;20010;-44
2022/03/15 05:35:37;;;;;;;39.45;21.50;;;;;;;;;;6092003;23;20034;-44
2022/03/15 05:38:02;;;;;;;43.33;20.17;;;;;;;;;;6091836;23;20022;-46
2022/03/15 05:40:27;;;;;;;40.22;20.25;;;;;;;;;;6091508;23;20543;-44
2022/03/15 05:42:53;;;;;;;35.30;20.73;;;;;;;;;;6091235;23;20018;-44
2022/03/15 05:45:18;;;;;;;43.38;23.92;;;;;;;;;;6091183;23;20026;-46
2022/03/15 05:47:44;;;;;;;50.92;22.23;;;;;;;;;;6090551;23;20014;-43
2022/03/15 05:50:09;;;;;;;48.60;22.15;;;;;;;;;;6094215;23;20460;-43
2022/03/15 05:52:34;;;;;;;41.78;21.80;;;;;;;;;;6095651;23;20041;-43
2022/03/15 05:54:59;;;;;;;38.88;22.05;;;;;;;;;;6095489;23;20026;-44
2022/03/15 05:57:25;;;;;;;42.30;21.88;;;;;;;;;;6095201;23;20019;-43
2022/03/15 05:59:50;;;;;;;38.45;20.35;;;;;;;;;;6095653;23;20066;-43
2022/03/15 06:02:15;;;;;;;45.63;21.45;;;;;;;;;;6094848;23;20025;-44
2022/03/15 06:04:41;;;;;;;43.60;18.17;;;;;;;;;;6095224;23;20011;-42
2022/03/15 06:07:06;;;;;;;32.92;20.35;;;;;;;;;;6096397;23;20026;-43
2022/03/15 06:09:32;;;;;;;39.78;18.77;;;;;;;;;;6094961;23;20014;-44
2022/03/15 06:11:58;;;;;;;37.35;18.80;;;;;;;;;;6094705;23;20014;-43
2022/03/15 06:14:23;;;;;;;30.88;18.65;;;;;;;;;;6095348;23;20051;-43
2022/03/15 06:16:49;;;;;;;37.08;21.08;;;;;;;;;;6095936;23;20677;-43
2022/03/15 06:19:14;;;;;;;37.05;19.52;;;;;;;;;;6094792;23;20605;-46
2022/03/15 06:21:39;;;;;;;31.05;18.70;;;;;;;;;;6095199;23;20062;-44
2022/03/15 06:24:06;;;;;;;35.10;19.98;;;;;;;;;;6094941;23;20018;-43
2022/03/15 06:26:31;;;;;;;37.42;20.40;;;;;;;;;;6095348;23;20010;-44
2022/03/15 06:28:58;;;;;;;35.47;18.83;;;;;;;;;;6095365;23;20018;-45
2022/03/15 06:31:23;;;;;;;24.55;16.00;;;;;;;;;;6094707;23;20018;-43
2022/03/15 06:33:48;;;;;;;31.02;18.23;;;;;;;;;;6095205;23;20037;-43
2022/03/15 06:36:15;;;;;;;32.20;17.58;;;;;;;;;;6093962;23;20046;-45
2022/03/15 06:38:41;;;;;;;35.47;20.15;;;;;;;;;;6095441;23;20003;-44
2022/03/15 06:41:06;;;;;;;34.45;17.77;;;;;;;;;;6094609;23;20050;-43
2022/03/15 06:43:32;;;;;;;35.40;20.02;;;;;;;;;;6095093;23;20017;-43
2022/03/15 06:45:57;;;;;;;33.17;18.30;;;;;;;;;;6095456;23;20109;-43
2022/03/15 06:48:23;;;;;;;32.47;17.75;;;;;;;;;;6095072;23;20014;-44
2022/03/15 06:50:48;;;;;;;33.03;18.35;;;;;;;;;;6092509;23;20392;-44
2022/03/15 06:53:14;;;;;;;34.03;19.40;;;;;;;;;;6094107;23;20018;-45
2022/03/15 06:55:39;;;;;;;37.60;19.45;;;;;;;;;;6094547;23;20018;-46
2022/03/15 06:58:04;;;;;;;35.08;19.25;;;;;;;;;;6095155;23;20019;-43
2022/03/15 07:00:30;;;;;;;35.63;20.52;;;;;;;;;;6093908;23;20049;-45
2022/03/15 07:02:55;;;;;;;35.90;20.27;;;;;;;;;;6094070;23;20026;-44
2022/03/15 07:05:20;;;;;;;33.42;19.98;;;;;;;;;;6094335;23;20015;-43
2022/03/15 07:07:46;;;;;;;31.10;18.15;;;;;;;;;;6094982;23;20041;-43
2022/03/15 07:10:12;;;;;;;33.28;18.88;;;;;;;;;;6094441;23;20025;-43
2022/03/15 07:12:38;;;;;;;34.63;18.77;;;;;;;;;;6093876;23;20533;-43
2022/03/15 07:15:05;;;;;;;35.20;19.10;;;;;;;;;;6095045;23;20019;-45
2022/03/15 07:17:30;;;;;;;32.60;17.45;;;;;;;;;;6094578;23;20014;-44
2022/03/15 07:19:57;;;;;;;36.72;19.73;;;;;;;;;;6087241;23;20042;-44
2022/03/15 07:22:23;;;;;;;32.17;18.48;;;;;;;;;;6086605;23;20090;-45
2022/03/15 07:24:49;;;;;;;35.22;18.77;;;;;;;;;;6087763;23;20011;-42
2022/03/15 07:27:14;;;;;;;32.65;17.05;;;;;;;;;;6089585;23;20575;-44
2022/03/15 07:29:39;;;;;;;35.35;17.77;;;;;;;;;;6089705;23;20007;-43
2022/03/15 07:32:05;;;;;;;37.92;15.57;;;;;;;;;;6090244;23;20014;-44
2022/03/15 07:34:30;;;;;;;28.55;14.57;;;;;;;;;;6091354;23;20027;-42
2022/03/15 07:36:55;;;;;;;26.77;14.77;;;;;;;;;;6093510;23;20018;-44
2022/03/15 07:39:21;;;;;;;24.85;14.18;;;;;;;;;;6095261;23;20043;-43
2022/03/15 07:41:46;;;;;;;31.45;14.85;;;;;;;;;;6092114;23;20021;-44
2022/03/15 07:44:12;;;;;;;22.48;12.93;;;;;;;;;;6096238;23;20352;-44
2022/03/15 07:46:37;;;;;;;30.65;13.68;;;;;;;;;;6093697;23;20011;-43
2022/03/15 07:49:03;;;;;;;28.00;16.73;;;;;;;;;;6095557;23;20099;-45
2022/03/15 07:51:28;;;;;;;32.10;15.82;;;;;;;;;;6088793;23;20030;-45
2022/03/15 07:53:54;;;;;;;30.67;16.40;;;;;;;;;;6090816;23;20010;-43
2022/03/15 07:56:20;;;;;;;33.35;17.77;;;;;;;;;;6089937;23;20018;-47
2022/03/15 07:58:45;;;;;;;37.17;17.20;;;;;;;;;;6091556;23;20058;-45
2022/03/15 08:01:10;;;;;;;32.58;17.05;;;;;;;;;;6089327;23;20030;-47
2022/03/15 08:03:35;;;;;;;30.58;16.27;;;;;;;;;;6087193;23;20014;-44
2022/03/15 08:06:01;;;;;;;48.88;18.35;;;;;;;;;;6088169;23;20296;-44
2022/03/15 08:08:26;;;;;;;34.00;17.77;;;;;;;;;;6088744;23;20503;-43
2022/03/15 08:10:52;;;;;;;36.47;16.38;;;;;;;;;;6089079;23;20038;-44
2022/03/15 08:13:17;;;;;;;33.45;15.07;;;;;;;;;;6082242;23;20030;-43
2022/03/15 08:15:43;;;;;;;33.38;13.30;;;;;;;;;;6083668;23;20002;-44
2022/03/15 08:18:08;;;;;;;24.10;12.15;;;;;;;;;;6083795;23;20050;-43
2022/03/15 08:20:33;;;;;;;19.35;9.18;;;;;;;;;;6084836;23;20025;-45
2022/03/15 08:22:59;;;;;;;18.67;8.70;;;;;;;;;;6091389;23;20070;-45
2022/03/15 08:25:25;;;;;;;25.30;8.45;;;;;;;;;;6090541;23;20013;-44
2022/03/15 08:27:50;;;;;;;23.33;6.68;;;;;;;;;;6081791;23;20507;-44
2022/03/15 08:30:16;;;;;;;11.00;5.78;;;;;;;;;;6087090;23;20400;-45
2022/03/15 08:32:41;;;;;;;13.70;5.43;;;;;;;;;;6087642;23;20041;-46
2022/03/15 08:35:06;;;;;;;15.90;5.82;;;;;;;;;;6086854;23;20037;-44
2022/03/15 08:37:32;;;;;;;20.05;5.90;;;;;;;;;;6087064;23;20042;-44
2022/03/15 08:39:57;;;;;;;13.07;5.72;;;;;;;;;;6087075;23;20026;-46
2022/03/15 08:42:23;;;;;;;12.23;5.57;;;;;;;;;;6087653;23;20014;-47
2022/03/15 08:44:48;;;;;;;8.68;4.70;;;;;;;;;;6087427;23;20354;-44
2022/03/15 08:47:14;;;;;;;13.07;5.65;;;;;;;;;;6088138;23;20018;-43
2022/03/15 08:49:41;;;;;;;14.52;5.57;;;;;;;;;;6090624;23;20080;-44
2022/03/15 08:52:08;;;;;;;16.83;5.22;;;;;;;;;;6090531;23;20038;-45
2022/03/15 08:54:34;;;;;;;13.88;5.22;;;;;;;;;;6078271;23;20025;-45
2022/03/15 08:56:59;;;;;;;14.02;6.07;;;;;;;;;;6079474;23;20018;-43
2022/03/15 08:59:25;;;;;;;10.80;5.30;;;;;;;;;;6089623;23;20376;-47
2022/03/15 09:01:51;;;;;;;24.05;5.55;;;;;;;;;;6089197;23;20014;-44
2022/03/15 09:04:16;;;;;;;12.90;4.63;;;;;;;;;;6093527;23;20011;-46
2022/03/15 09:06:43;;;;;;;16.27;6.00;;;;;;;;;;6081072;23;20081;-46
2022/03/15 09:09:08;;;;;;;10.10;5.00;;;;;;;;;;6085681;23;20022;-43
2022/03/15 09:11:33;;;;;;;13.40;5.15;;;;;;;;;;6089595;23;20058;-45
2022/03/15 09:13:59;;;;;;;10.75;4.72;;;;;;;;;;6092298;23;20042;-43
2022/03/15 09:16:25;;;;;;;16.50;5.50;;;;;;;;;;6085850;23;20018;-46
2022/03/15 09:18:50;;;;;;;15.98;6.07;;;;;;;;;;6093149;23;20091;-45
2022/03/15 09:21:16;;;;;;;15.50;4.85;;;;;;;;;;6093675;23;20022;-44
2022/03/15 09:23:41;;;;;;;14.73;4.97;;;;;;;;;;6093387;23;20018;-45
2022/03/15 09:26:07;;;;;;;11.57;4.75;;;;;;;;;;6083052;23;20021;-44
2022/03/15 09:28:33;;;;;;;21.13;4.72;;;;;;;;;;6089971;23;20034;-44
2022/03/15 09:30:59;;;;;;;20.98;4.30;;;;;;;;;;6083510;23;20014;-44
2022/03/15 09:33:24;;;;;;;8.80;4.75;;;;;;;;;;6092579;23;20018;-46
2022/03/15 09:35:49;;;;;;;9.98;4.60;;;;;;;;;;6091000;23;20046;-45
2022/03/15 09:38:15;;;;;;;12.25;3.80;;;;;;;;;;6092459;23;20018;-46
2022/03/15 09:40:41;;;;;;;12.50;4.70;;;;;;;;;;6091042;23;20029;-44
2022/03/15 09:43:06;;;;;;;11.35;4.05;;;;;;;;;;6093612;23;20011;-44
2022/03/15 09:45:33;;;;;;;14.10;3.75;;;;;;;;;;6092626;23;20026;-44
2022/03/15 09:48:00;;;;;;;14.63;4.00;;;;;;;;;;6091286;23;20006;-46
2022/03/15 09:50:26;;;;;;;9.45;4.45;;;;;;;;;;6091334;23;20465;-43
2022/03/15 09:52:56;;;;;;;9.90;4.47;;;;;;;;;;6093464;23;20022;-44
2022/03/15 09:55:22;;;;;;;8.35;3.42;;;;;;;;;;6089217;23;20015;-45
2022/03/15 09:57:47;;;;;;;12.18;5.15;;;;;;;;;;6091063;23;20014;-44
2022/03/15 10:00:15;;;;;;;11.85;4.10;;;;;;;;;;6080625;23;20046;-44
2022/03/15 10:02:41;;;;;;;12.05;4.63;;;;;;;;;;6083625;23;20386;-46
2022/03/15 10:05:08;;;;;;;7.45;3.50;;;;;;;;;;6091234;23;20357;-45
2022/03/15 10:07:34;;;;;;;7.90;4.10;;;;;;;;;;6090876;23;20019;-44
2022/03/15 10:10:00;;;;;;;10.05;3.92;;;;;;;;;;6091789;23;20049;-44
2022/03/15 10:12:25;;;;;;;14.52;4.30;;;;;;;;;;6084494;23;20373;-45
2022/03/15 10:14:51;;;;;;;5.90;3.42;;;;;;;;;;6091452;23;20022;-44
2022/03/15 10:17:16;;;;;;;12.13;3.78;;;;;;;;;;6088909;23;20022;-44
2022/03/15 10:19:51;;;;;;;9.30;4.18;;;;;;;;;;6094657;23;20033;-45
2022/03/15 10:22:19;;;;;;;9.25;3.47;;;;;;;;;;6092789;23;20050;-45
2022/03/15 10:24:46;;;;;;;9.93;4.63;;;;;;;;;;6090021;23;20017;-45
2022/03/15 10:27:11;;;;;;;11.57;4.35;;;;;;;;;;6091842;23;20046;-45
2022/03/15 10:29:36;;;;;;;8.25;3.97;;;;;;;;;;6090795;23;20013;-44
2022/03/15 10:32:04;;;;;;;6.57;3.75;;;;;;;;;;6092796;23;20045;-44
2022/03/15 10:34:30;;;;;;;17.40;5.70;;;;;;;;;;6091461;23;20427;-46
2022/03/15 10:36:56;;;;;;;14.68;4.85;;;;;;;;;;6092632;23;20112;-45
2022/03/15 10:39:22;;;;;;;11.70;4.30;;;;;;;;;;6089464;23;20375;-45
2022/03/15 10:41:52;;;;;;;17.95;4.55;;;;;;;;;;6090756;23;20006;-45
2022/03/15 10:44:22;;;;;;;8.10;4.15;;;;;;;;;;6088206;23;20018;-43
2022/03/15 10:47:02;;;;;;;10.25;4.32;;;;;;;;;;6086654;23;20117;-44
2022/03/15 10:49:28;;;;;;;12.30;4.95;;;;;;;;;;6083134;23;20014;-44
2022/03/15 10:51:53;;;;;;;15.50;4.72;;;;;;;;;;6087720;23;20050;-43
2022/03/15 10:54:22;;;;;;;11.45;5.07;;;;;;;;;;6087248;23;20074;-44
2022/03/15 10:56:51;;;;;;;9.77;3.92;;;;;;;;;;6086027;23;20509;-46
2022/03/15 10:59:16;;;;;;;10.20;3.78;;;;;;;;;;6090255;23;20471;-45
2022/03/15 11:01:42;;;;;;;10.68;4.22;;;;;;;;;;6090067;23;20018;-45
2022/03/15 11:04:09;;;;;;;11.57;4.20;;;;;;;;;;6092433;23;20014;-45
2022/03/15 11:06:38;;;;;;;7.13;3.80;;;;;;;;;;6088056;23;20018;-44
2022/03/15 11:09:16;;;;;;;8.07;4.43;;;;;;;;;;6090168;23;20018;-46
2022/03/15 11:11:42;;;;;;;11.65;4.22;;;;;;;;;;6090129;23;20015;-46
2022/03/15 11:14:08;;;;;;;16.13;5.65;;;;;;;;;;6091290;23;20019;-46
2022/03/15 11:16:35;;;;;;;9.95;5.00;;;;;;;;;;6089445;23;20015;-45
2022/03/15 11:19:02;;;;;;;16.20;5.45;;;;;;;;;;6092484;23;20030;-46
2022/03/15 11:21:27;;;;;;;7.10;5.07;;;;;;;;;;6091284;23;20628;-45
2022/03/15 11:23:55;;;;;;;16.20;4.70;;;;;;;;;;6094981;23;20057;-44
2022/03/15 11:26:25;;;;;;;9.77;4.43;;;;;;;;;;6087555;23;20020;-43
2022/03/15 11:28:51;;;;;;;7.20;4.32;;;;;;;;;;6092782;23;20014;-45
2022/03/15 11:31:17;;;;;;;9.80;4.72;;;;;;;;;;6089019;23;20014;-45
2022/03/15 11:33:45;;;;;;;9.32;4.93;;;;;;;;;;6093586;23;20010;-45
2022/03/15 11:36:12;;;;;;;9.23;4.63;;;;;;;;;;6090357;23;20018;-46
2022/03/15 11:38:38;;;;;;;11.38;4.57;;;;;;;;;;6093500;23;20404;-45
2022/03/15 11:41:03;;;;;;;12.25;4.47;;;;;;;;;;6091480;23;20022;-47
2022/03/15 11:43:28;;;;;;;10.90;5.28;;;;;;;;;;6088190;23;20018;-45
2022/03/15 11:46:03;;;;;;;12.75;4.63;;;;;;;;;;6092267;23;20003;-45
2022/03/15 11:48:47;;;;;;;11.52;3.72;;;;;;;;;;6089259;23;20018;-48
2022/03/15 11:51:24;;;;;;;8.80;4.22;;;;;;;;;;6089933;23;20038;-47
2022/03/15 11:53:52;;;;;;;10.68;4.65;;;;;;;;;;6093238;23;20007;-44
2022/03/15 11:56:27;;;;;;;21.15;4.40;;;;;;;;;;6090915;23;20066;-46
2022/03/15 11:58:53;;;;;;;10.88;4.40;;;;;;;;;;6094371;23;20018;-45
2022/03/15 12:01:20;;;;;;;10.45;4.30;;;;;;;;;;6088026;23;20023;-44
2022/03/15 12:03:47;;;;;;;14.77;5.43;;;;;;;;;;6093459;23;20030;-46
2022/03/15 12:06:16;;;;;;;9.75;4.40;;;;;;;;;;6090243;23;20033;-45
2022/03/15 12:08:43;;;;;;;14.75;4.93;;;;;;;;;;6094251;23;20022;-45
2022/03/15 12:11:08;;;;;;;17.67;4.35;;;;;;;;;;6091957;23;20106;-45
2022/03/15 12:13:47;;;;;;;11.00;5.05;;;;;;;;;;6088908;23;20010;-45
2022/03/15 12:16:15;;;;;;;14.70;5.20;;;;;;;;;;6091672;23;20006;-44
2022/03/15 12:18:44;;;;;;;8.50;3.67;;;;;;;;;;6089927;23;20042;-45
2022/03/15 12:21:09;;;;;;;8.50;3.58;;;;;;;;;;6093254;23;20022;-48
2022/03/15 12:23:39;;;;;;;11.82;4.07;;;;;;;;;;6092771;23;20054;-44
2022/03/15 12:26:05;;;;;;;;;;;;;;;;;;6090847;23;20015;-45
2022/03/15 12:28:31;;;;;;;9.23;3.40;;;;;;;;;;6092156;23;19949;-47
2022/03/15 12:31:03;;;;;;;18.52;4.55;;;;;;;;;;6090625;23;20355;-45
2022/03/15 12:33:28;;;;;;;9.70;3.88;;;;;;;;;;6091260;23;20018;-44
2022/03/15 12:36:07;;;;;;;10.30;4.35;;;;;;;;;;6091058;23;20695;-45
2022/03/15 12:38:33;;;;;;;5.93;3.25;;;;;;;;;;6091232;23;20034;-47
2022/03/15 12:41:01;;;;;;;12.40;4.70;;;;;;;;;;6093028;23;20074;-45
2022/03/15 12:43:26;;;;;;;10.48;3.97;;;;;;;;;;6090402;23;20018;-46
2022/03/15 12:45:52;;;;;;;10.50;3.83;;;;;;;;;;6092510;23;20014;-45
2022/03/15 12:48:27;;;;;;;11.80;3.80;;;;;;;;;;6091175;23;20011;-45
2022/03/15 12:50:54;;;;;;;12.43;3.72;;;;;;;;;;6091265;23;20185;-44
2022/03/15 12:53:19;;;;;;;6.50;3.30;;;;;;;;;;6090917;23;20011;-45
2022/03/15 12:55:44;;;;;;;8.45;3.80;;;;;;;;;;6091404;23;20062;-46
2022/03/15 12:58:10;;;;;;;11.80;3.95;;;;;;;;;;6087956;23;20026;-51
2022/03/15 13:00:37;;;;;;;13.02;4.13;;;;;;;;;;6093057;23;20018;-44
2022/03/15 13:03:03;;;;;;;9.70;3.60;;;;;;;;;;6089843;23;20022;-45
2022/03/15 13:05:29;;;;;;;7.10;4.85;;;;;;;;;;6091673;23;20409;-48
2022/03/15 13:07:59;;;;;;;12.27;5.22;;;;;;;;;;6092044;23;20061;-47
2022/03/15 13:10:28;;;;;;;17.17;4.95;;;;;;;;;;6090898;23;20058;-44
2022/03/15 13:12:55;;;;;;;9.73;3.95;;;;;;;;;;6090694;23;20343;-44
2022/03/15 13:15:21;;;;;;;6.35;4.05;;;;;;;;;;6091014;23;20029;-45
2022/03/15 13:17:48;;;;;;;15.32;5.13;;;;;;;;;;6089104;23;20091;-43
2022/03/15 13:20:21;;;;;;;10.38;3.47;;;;;;;;;;6092053;23;20389;-45
2022/03/15 13:22:56;;;;;;;8.63;3.75;;;;;;;;;;6081319;23;20010;-45
2022/03/15 13:25:21;;;;;;;7.20;3.80;;;;;;;;;;6085767;23;20046;-44
2022/03/15 13:27:46;;;;;;;7.43;3.78;;;;;;;;;;6086151;23;20014;-46
2022/03/15 13:30:14;;;;;;;9.93;3.90;;;;;;;;;;6088620;23;20018;-44
2022/03/15 13:32:39;;;;;;;8.98;4.15;;;;;;;;;;6087581;23;20006;-45
2022/03/15 13:35:05;;;;;;;11.70;3.78;;;;;;;;;;6087947;23;20015;-47
2022/03/15 13:37:32;;;;;;;5.95;3.97;;;;;;;;;;6087118;23;20113;-43
2022/03/15 13:39:57;;;;;;;7.35;3.38;;;;;;;;;;6088894;23;20030;-45
2022/03/15 13:42:22;;;;;;;14.52;3.47;;;;;;;;;;6088073;23;20045;-46
2022/03/15 13:44:49;;;;;;;11.15;4.50;;;;;;;;;;6087586;23;20086;-44
2022/03/15 13:47:15;;;;;;;10.15;4.00;;;;;;;;;;6083560;23;20383;-47
2022/03/15 13:49:42;;;;;;;10.00;4.07;;;;;;;;;;6086006;23;20541;-46
2022/03/15 13:52:08;;;;;;;9.68;3.65;;;;;;;;;;6091088;23;20031;-44
2022/03/15 13:54:49;;;;;;;11.77;5.32;;;;;;;;;;6089036;23;20022;-45
2022/03/15 13:57:28;;;;;;;13.18;4.68;;;;;;;;;;6086716;23;20013;-46
2022/03/15 14:00:04;;;;;;;12.35;4.50;;;;;;;;;;6089948;23;20685;-45
2022/03/15 14:02:34;;;;;;;9.50;3.85;;;;;;;;;;6088603;23;20169;-48
2022/03/15 14:05:04;;;;;;;11.25;4.50;;;;;;;;;;6089892;23;20006;-46
2022/03/15 14:07:29;;;;;;;8.38;3.67;;;;;;;;;;6089658;23;20033;-48
2022/03/15 14:10:02;;;;;;;7.05;3.65;;;;;;;;;;6086589;23;20011;-48
2022/03/15 14:12:29;;;;;;;7.70;2.90;;;;;;;;;;6085918;23;20062;-46
2022/03/15 14:14:55;;;;;;;4.20;2.45;;;;;;;;;;6089443;23;20010;-45
2022/03/15 14:17:26;;;;;;;4.68;2.63;;;;;;;;;;6091367;23;21035;-44
2022/03/15 14:19:55;;;;;;;5.85;3.05;;;;;;;;;;6095361;23;20483;-44
2022/03/15 14:22:23;;;;;;;13.18;3.42;;;;;;;;;;6091424;23;20014;-45